Time;durP1;ratioP1;P1;durP2;ratioP2;P2;SDS_P1;SDS_P2;PMS_P1;PMS_P2;Temp;Humidity;BMP_temperature;BMP_pressure;BME280_temperature;BME280_humidity;BME280_pressure;Samples;Min_cycle;Max_cycle;Signal;HPM_P1;HPM_P2
2023/11/16 00:00:57;;;;;;;1.60;1.30;;;8.30;98.20;;;;;;5009097;28;20482;-86
2023/11/16 00:03:25;;;;;;;1.63;1.20;;;8.30;98.20;;;;;;5007037;28;20461;-86
2023/11/16 00:05:52;;;;;;;1.60;1.20;;;8.30;98.20;;;;;;4982981;28;20900;-86
2023/11/16 00:08:19;;;;;;;1.60;1.27;;;8.30;98.20;;;;;;5011628;28;20486;-88
2023/11/16 00:10:45;;;;;;;1.60;1.20;;;8.30;98.20;;;;;;4995305;28;20461;-86
2023/11/16 00:13:12;;;;;;;1.70;1.30;;;8.30;98.20;;;;;;5014661;28;20567;-86
2023/11/16 00:15:39;;;;;;;1.63;1.30;;;8.30;98.20;;;;;;5024778;28;20462;-87
2023/11/16 00:18:06;;;;;;;1.63;1.20;;;8.40;98.20;;;;;;5023426;28;20487;-87
2023/11/16 00:20:35;;;;;;;1.60;1.20;;;8.40;98.20;;;;;;5015323;28;20464;-87
2023/11/16 00:23:03;;;;;;;1.60;1.20;;;8.40;98.20;;;;;;5031484;28;20550;-86
2023/11/16 00:25:31;;;;;;;1.63;1.30;;;8.40;98.20;;;;;;5019686;28;20537;-83
2023/11/16 00:27:59;;;;;;;1.60;1.20;;;8.40;98.20;;;;;;5029940;28;20529;-87
2023/11/16 00:30:26;;;;;;;1.60;1.20;;;8.40;98.20;;;;;;5013365;28;20460;-86
2023/11/16 00:32:53;;;;;;;1.60;1.20;;;8.50;98.20;;;;;;5022813;28;20501;-85
2023/11/16 00:35:21;;;;;;;1.60;1.20;;;8.50;98.20;;;;;;5016132;28;20467;-86
2023/11/16 00:37:52;;;;;;;1.60;1.13;;;8.50;98.20;;;;;;5015896;28;20487;-88
2023/11/16 00:40:20;;;;;;;1.70;1.60;;;8.50;98.20;;;;;;5023330;28;20472;-87
2023/11/16 00:42:47;;;;;;;1.60;1.20;;;8.50;98.20;;;;;;5022710;28;20489;-86
2023/11/16 00:45:13;;;;;;;1.67;1.30;;;8.50;98.20;;;;;;5020796;28;20484;-86
2023/11/16 00:47:40;;;;;;;1.67;1.30;;;8.50;98.20;;;;;;5020608;28;20497;-86
2023/11/16 00:50:08;;;;;;;1.63;1.20;;;8.60;98.20;;;;;;5017523;28;20991;-85
2023/11/16 00:52:35;;;;;;;1.67;1.30;;;8.60;98.20;;;;;;5019268;28;20471;-86
2023/11/16 00:55:04;;;;;;;1.63;1.23;;;8.60;98.20;;;;;;5021867;28;20456;-87
2023/11/16 00:57:31;;;;;;;1.60;1.20;;;8.60;98.20;;;;;;5014584;28;20506;-86
2023/11/16 00:59:58;;;;;;;1.67;1.30;;;8.60;98.20;;;;;;5024811;28;20480;-86
2023/11/16 01:02:26;;;;;;;1.63;1.20;;;8.60;98.20;;;;;;5009741;28;20470;-86
2023/11/16 01:04:52;;;;;;;1.70;1.50;;;8.60;98.20;;;;;;5017491;28;20517;-85
2023/11/16 01:07:21;;;;;;;1.60;1.20;;;8.60;98.20;;;;;;5021331;28;20540;-87
2023/11/16 01:09:48;;;;;;;1.60;1.20;;;8.70;98.20;;;;;;5022487;28;20833;-86
2023/11/16 01:12:16;;;;;;;1.60;1.20;;;8.70;98.20;;;;;;5021787;28;20477;-86
2023/11/16 01:14:44;;;;;;;1.60;1.20;;;8.70;98.20;;;;;;5026195;28;20452;-86
2023/11/16 01:17:18;;;;;;;1.60;1.20;;;8.70;98.20;;;;;;5023732;28;20479;-85
2023/11/16 01:19:46;;;;;;;1.60;1.20;;;8.70;98.20;;;;;;5023148;28;20458;-87
2023/11/16 01:22:15;;;;;;;1.60;1.20;;;8.70;98.20;;;;;;5016593;28;21018;-86
2023/11/16 01:24:44;;;;;;;1.67;1.30;;;8.70;98.20;;;;;;5019982;28;20490;-86
2023/11/16 01:27:15;;;;;;;1.70;1.30;;;8.70;98.20;;;;;;5016908;28;21046;-87
2023/11/16 01:29:45;;;;;;;1.63;1.20;;;8.70;98.20;;;;;;5029193;28;20525;-87
2023/11/16 01:32:12;;;;;;;1.60;1.20;;;8.70;98.20;;;;;;5020237;28;20510;-87
2023/11/16 01:34:42;;;;;;;1.60;1.20;;;8.70;98.20;;;;;;5024892;28;20538;-87
2023/11/16 01:37:10;;;;;;;1.60;1.20;;;8.70;98.20;;;;;;5014568;28;20482;-86
2023/11/16 01:39:38;;;;;;;1.60;1.20;;;8.70;98.20;;;;;;5034598;28;20463;-86
2023/11/16 01:42:06;;;;;;;1.70;1.40;;;8.70;98.20;;;;;;5014232;28;20993;-87
2023/11/16 01:44:33;;;;;;;1.60;1.20;;;8.70;98.20;;;;;;5033590;28;20483;-86
2023/11/16 01:47:02;;;;;;;1.63;1.23;;;8.70;98.20;;;;;;5014080;28;20498;-86
2023/11/16 01:49:30;;;;;;;1.60;1.20;;;8.70;98.20;;;;;;5028076;28;20451;-86
2023/11/16 01:51:57;;;;;;;1.60;1.30;;;8.70;98.20;;;;;;5025492;28;20474;-87
2023/11/16 01:54:25;;;;;;;1.60;1.20;;;8.70;98.20;;;;;;5028313;28;20480;-86
2023/11/16 01:56:52;;;;;;;1.60;1.13;;;8.70;98.20;;;;;;5024680;28;20637;-88
2023/11/16 01:59:20;;;;;;;1.60;1.20;;;8.80;98.20;;;;;;5022235;28;20472;-86
2023/11/16 02:01:48;;;;;;;1.60;1.20;;;8.80;98.20;;;;;;5018665;28;21005;-87
2023/11/16 02:04:16;;;;;;;1.70;1.40;;;8.80;98.20;;;;;;5032897;28;20579;-88
2023/11/16 02:06:43;;;;;;;1.60;1.30;;;8.80;98.20;;;;;;5033049;28;20562;-86
2023/11/16 02:09:11;;;;;;;1.60;1.30;;;8.80;98.20;;;;;;5032121;28;20935;-87
2023/11/16 02:11:38;;;;;;;1.60;1.20;;;8.80;98.20;;;;;;5003382;28;20894;-86
2023/11/16 02:14:05;;;;;;;1.60;1.30;;;8.80;98.20;;;;;;5022333;28;20460;-87
2023/11/16 02:16:32;;;;;;;1.60;1.20;;;8.80;98.20;;;;;;5005747;28;20475;-86
2023/11/16 02:19:05;;;;;;;1.60;1.20;;;8.80;98.20;;;;;;5027375;28;20564;-86
2023/11/16 02:21:38;;;;;;;1.60;1.30;;;8.80;98.20;;;;;;5005805;28;20804;-86
2023/11/16 02:24:32;;;;;;;1.60;1.20;;;8.80;98.20;;;;;;5021583;28;20460;-86
2023/11/16 02:26:59;;;;;;;1.60;1.20;;;8.80;98.20;;;;;;5008452;28;20506;-87
2023/11/16 02:29:26;;;;;;;1.60;1.20;;;8.80;98.20;;;;;;5020984;28;20831;-86
2023/11/16 02:31:53;;;;;;;1.60;1.13;;;8.80;98.20;;;;;;5011922;28;20489;-87
2023/11/16 02:34:20;;;;;;;1.60;1.20;;;8.80;98.20;;;;;;5020610;28;20546;-86
2023/11/16 02:36:47;;;;;;;1.60;1.20;;;8.80;98.20;;;;;;5014934;28;20566;-86
2023/11/16 02:39:15;;;;;;;1.60;1.20;;;8.80;98.20;;;;;;5021631;28;20480;-86
2023/11/16 02:41:45;;;;;;;1.60;1.30;;;8.90;98.20;;;;;;5010787;28;20479;-86
2023/11/16 02:44:14;;;;;;;1.60;1.20;;;8.80;98.20;;;;;;5023040;28;22877;-88
2023/11/16 02:46:41;;;;;;;1.60;1.20;;;8.90;98.20;;;;;;5020648;28;20564;-86
2023/11/16 02:49:08;;;;;;;1.60;1.20;;;8.90;98.20;;;;;;5032003;28;20480;-86
2023/11/16 02:51:37;;;;;;;1.60;1.30;;;8.90;98.20;;;;;;5006873;28;20861;-86
2023/11/16 02:54:06;;;;;;;1.60;1.20;;;8.90;98.20;;;;;;5020699;28;20452;-86
2023/11/16 02:56:33;;;;;;;1.60;1.20;;;8.90;98.20;;;;;;5014065;28;20533;-86
2023/11/16 02:59:01;;;;;;;1.60;1.20;;;8.90;98.20;;;;;;5025613;28;20551;-87
2023/11/16 03:01:28;;;;;;;1.60;1.20;;;8.80;98.20;;;;;;5009506;28;20464;-86
2023/11/16 03:03:55;;;;;;;1.60;1.20;;;8.80;98.20;;;;;;5024133;28;20486;-86
2023/11/16 03:06:22;;;;;;;1.67;1.30;;;8.80;98.20;;;;;;5009274;28;20471;-86
2023/11/16 03:08:49;;;;;;;1.60;1.20;;;8.80;98.20;;;;;;5024614;28;20646;-86
2023/11/16 03:11:16;;;;;;;1.60;1.27;;;8.80;98.20;;;;;;5007042;28;21033;-86
2023/11/16 03:13:44;;;;;;;1.60;1.10;;;8.80;98.20;;;;;;5025538;28;20509;-84
2023/11/16 03:16:12;;;;;;;1.60;1.20;;;8.70;98.20;;;;;;5009759;28;20537;-84
2023/11/16 03:18:39;;;;;;;1.60;1.20;;;8.70;98.20;;;;;;5026173;28;20484;-84
2023/11/16 03:21:06;;;;;;;1.60;1.10;;;8.60;98.20;;;;;;5006101;28;20470;-84
2023/11/16 03:23:36;;;;;;;1.60;1.20;;;8.60;98.20;;;;;;5026083;28;20492;-85
2023/11/16 03:26:03;;;;;;;1.63;1.23;;;8.60;98.20;;;;;;5004637;28;20488;-85
2023/11/16 03:28:30;;;;;;;1.60;1.20;;;8.60;98.20;;;;;;5026475;28;20483;-84
2023/11/16 03:30:58;;;;;;;1.60;1.20;;;8.60;98.20;;;;;;5005250;28;20958;-85
2023/11/16 03:33:26;;;;;;;1.60;1.20;;;8.50;98.20;;;;;;5028422;22;21087;-84
2023/11/16 03:35:53;;;;;;;1.60;1.20;;;8.50;98.20;;;;;;5006274;28;20459;-84
2023/11/16 03:38:20;;;;;;;1.60;1.20;;;8.50;98.20;;;;;;5012622;28;20550;-85
2023/11/16 03:40:49;;;;;;;1.60;1.20;;;8.50;98.20;;;;;;5018432;28;21138;-84
2023/11/16 03:43:15;;;;;;;1.60;1.20;;;8.50;98.20;;;;;;4997831;28;20620;-85
2023/11/16 03:45:42;;;;;;;1.60;1.20;;;8.50;98.20;;;;;;4997326;28;20999;-84
2023/11/16 03:48:11;;;;;;;1.60;1.20;;;8.50;98.20;;;;;;5001655;28;20515;-85
2023/11/16 03:50:40;;;;;;;1.60;1.20;;;8.50;98.20;;;;;;5003593;28;20468;-84
2023/11/16 03:53:07;;;;;;;1.60;1.20;;;8.50;98.20;;;;;;5005669;28;20561;-84
2023/11/16 03:55:34;;;;;;;1.60;1.30;;;8.50;98.20;;;;;;4995622;28;20929;-84
2023/11/16 03:58:00;;;;;;;1.63;1.30;;;8.50;98.20;;;;;;5006200;28;20484;-85
2023/11/16 04:00:30;;;;;;;1.67;1.30;;;8.50;98.20;;;;;;5001888;28;20456;-85
2023/11/16 04:02:59;;;;;;;1.60;1.20;;;8.60;98.20;;;;;;5003161;28;21052;-86
2023/11/16 04:05:26;;;;;;;1.60;1.20;;;8.60;98.20;;;;;;4999173;28;21053;-85
2023/11/16 04:07:55;;;;;;;1.60;1.20;;;8.60;98.20;;;;;;5009974;28;20911;-85
2023/11/16 04:10:22;;;;;;;1.60;1.10;;;8.60;98.20;;;;;;4997939;28;20461;-85
2023/11/16 04:12:49;;;;;;;1.60;1.17;;;8.60;98.20;;;;;;5002941;28;20482;-85
2023/11/16 04:15:17;;;;;;;1.60;1.20;;;8.60;98.20;;;;;;5001855;28;20552;-85
2023/11/16 04:17:44;;;;;;;1.60;1.20;;;8.60;98.20;;;;;;5010789;28;21025;-86
2023/11/16 04:20:12;;;;;;;1.60;1.30;;;8.60;98.20;;;;;;5002359;28;20460;-85
2023/11/16 04:22:40;;;;;;;1.60;1.20;;;8.60;98.20;;;;;;4993928;28;20559;-84
2023/11/16 04:25:11;;;;;;;1.60;1.20;;;8.60;98.20;;;;;;4999827;28;20582;-85
2023/11/16 04:27:38;;;;;;;1.60;1.20;;;8.60;98.20;;;;;;5007817;28;20520;-85
2023/11/16 04:30:07;;;;;;;1.60;1.20;;;8.60;98.20;;;;;;5003175;28;20464;-85
2023/11/16 04:32:34;;;;;;;1.63;1.30;;;8.60;98.20;;;;;;5000717;28;20559;-85
2023/11/16 04:35:03;;;;;;;1.60;1.17;;;8.60;98.20;;;;;;4999470;28;20571;-85
2023/11/16 04:37:31;;;;;;;1.60;1.20;;;8.60;98.20;;;;;;5012974;28;20479;-85
2023/11/16 04:39:57;;;;;;;1.60;1.20;;;8.60;98.20;;;;;;4996598;28;20516;-87
2023/11/16 04:42:25;;;;;;;1.60;1.20;;;8.60;98.20;;;;;;5001474;28;20494;-86
2023/11/16 04:44:52;;;;;;;1.60;1.20;;;8.60;98.20;;;;;;5001139;28;20470;-85
2023/11/16 04:47:19;;;;;;;1.60;1.10;;;8.60;98.20;;;;;;5004163;28;21046;-85
2023/11/16 04:49:49;;;;;;;1.63;1.20;;;8.60;98.20;;;;;;4992807;28;20496;-86
2023/11/16 04:52:16;;;;;;;1.60;1.20;;;8.60;98.20;;;;;;4997115;28;20509;-85
2023/11/16 04:54:43;;;;;;;1.63;1.30;;;8.60;98.20;;;;;;4996582;28;20496;-86
2023/11/16 04:57:10;;;;;;;1.60;1.27;;;8.60;98.20;;;;;;5009817;28;20509;-85
2023/11/16 04:59:38;;;;;;;1.60;1.20;;;8.60;98.20;;;;;;5007302;28;20468;-85
2023/11/16 05:02:05;;;;;;;1.60;1.20;;;8.60;98.20;;;;;;4999428;28;20507;-85
2023/11/16 05:04:32;;;;;;;1.60;1.20;;;8.60;98.20;;;;;;4999332;28;20688;-85
2023/11/16 05:06:59;;;;;;;1.60;1.20;;;8.60;98.20;;;;;;4992919;28;20526;-85
2023/11/16 05:09:26;;;;;;;1.60;1.10;;;8.60;98.20;;;;;;5000776;28;20466;-86
2023/11/16 05:11:54;;;;;;;1.60;1.20;;;8.60;98.20;;;;;;4994569;28;20479;-86
2023/11/16 05:14:21;;;;;;;1.63;1.30;;;8.60;98.20;;;;;;4998838;28;20463;-86
2023/11/16 05:16:49;;;;;;;1.60;1.20;;;8.60;98.20;;;;;;4989077;28;20771;-86
2023/11/16 05:19:16;;;;;;;1.60;1.20;;;8.60;98.20;;;;;;5010656;28;20946;-85
2023/11/16 05:21:43;;;;;;;1.60;1.20;;;8.60;98.20;;;;;;5005045;28;20515;-84
2023/11/16 05:24:10;;;;;;;1.60;1.20;;;8.60;98.20;;;;;;5010776;28;20461;-85
2023/11/16 05:26:38;;;;;;;1.60;1.20;;;8.60;98.20;;;;;;4997627;28;20653;-85
2023/11/16 05:29:05;;;;;;;1.60;1.20;;;8.60;98.20;;;;;;5000061;28;20540;-85
2023/11/16 05:31:32;;;;;;;1.60;1.20;;;8.60;98.20;;;;;;4989634;28;20481;-85
2023/11/16 05:34:00;;;;;;;1.60;1.20;;;8.60;98.20;;;;;;5002051;28;20464;-86
2023/11/16 05:36:29;;;;;;;1.60;1.20;;;8.60;98.20;;;;;;4990660;28;20480;-86
2023/11/16 05:38:57;;;;;;;1.60;1.10;;;8.60;98.20;;;;;;4996636;28;20484;-83
2023/11/16 05:41:23;;;;;;;1.60;1.20;;;8.60;98.20;;;;;;4988849;28;20540;-83
2023/11/16 05:43:51;;;;;;;1.60;1.20;;;8.60;98.20;;;;;;5005759;28;20499;-83
2023/11/16 05:46:18;;;;;;;1.60;1.13;;;8.50;98.20;;;;;;4986012;28;20505;-83
2023/11/16 05:48:45;;;;;;;1.60;1.20;;;8.50;98.20;;;;;;5002893;28;20471;-84
2023/11/16 05:51:14;;;;;;;1.60;1.10;;;8.50;98.20;;;;;;4988631;28;21505;-83
2023/11/16 05:53:41;;;;;;;1.60;1.20;;;8.50;98.20;;;;;;5007728;28;20987;-83
2023/11/16 05:56:09;;;;;;;1.60;1.20;;;8.50;98.20;;;;;;4979463;28;20943;-84
2023/11/16 05:58:35;;;;;;;1.60;1.20;;;8.50;98.20;;;;;;5002572;28;20580;-82
2023/11/16 06:01:02;;;;;;;1.60;1.20;;;8.50;98.20;;;;;;4983262;28;20476;-84
2023/11/16 06:03:29;;;;;;;1.60;1.20;;;8.50;98.20;;;;;;5006819;28;20487;-84
2023/11/16 06:05:57;;;;;;;1.60;1.20;;;8.50;98.20;;;;;;4990248;28;20481;-84
2023/11/16 06:08:26;;;;;;;1.60;1.20;;;8.50;98.20;;;;;;5011535;28;20461;-83
2023/11/16 06:10:53;;;;;;;1.60;1.20;;;8.50;98.20;;;;;;4984150;28;20461;-84
2023/11/16 06:13:22;;;;;;;1.60;1.20;;;8.50;98.20;;;;;;5001019;28;20711;-84
2023/11/16 06:15:49;;;;;;;1.60;1.17;;;8.50;98.20;;;;;;4986944;28;20464;-84
2023/11/16 06:18:16;;;;;;;1.60;1.20;;;8.50;98.20;;;;;;5007410;28;20497;-84
2023/11/16 06:20:44;;;;;;;1.60;1.13;;;8.60;98.20;;;;;;4997058;28;20959;-85
2023/11/16 06:23:11;;;;;;;1.60;1.20;;;8.50;98.20;;;;;;4995008;28;20527;-83
2023/11/16 06:25:40;;;;;;;1.60;1.20;;;8.60;98.20;;;;;;4993091;28;20579;-84
2023/11/16 06:28:06;;;;;;;1.60;1.10;;;8.50;98.20;;;;;;5001093;28;20490;-83
2023/11/16 06:30:34;;;;;;;1.60;1.20;;;8.50;98.20;;;;;;4993677;28;20631;-84
2023/11/16 06:33:01;;;;;;;1.60;1.30;;;8.50;98.20;;;;;;4957432;28;20602;-84
2023/11/16 06:35:28;;;;;;;1.60;1.20;;;8.50;98.20;;;;;;4974066;28;20470;-84
2023/11/16 06:38:20;;;;;;;1.60;1.20;;;8.50;98.20;;;;;;4976589;28;20481;-85
2023/11/16 06:40:49;;;;;;;1.60;1.20;;;8.50;98.20;;;;;;4967206;28;21374;-83
2023/11/16 06:43:16;;;;;;;1.60;1.20;;;8.40;98.20;;;;;;4986750;28;20490;-83
2023/11/16 06:45:44;;;;;;;1.60;1.10;;;8.40;98.20;;;;;;4974741;28;20490;-84
2023/11/16 06:48:11;;;;;;;1.60;1.20;;;8.40;98.20;;;;;;4974683;28;20586;-83
2023/11/16 06:50:38;;;;;;;1.60;1.20;;;8.40;98.20;;;;;;4972427;28;20489;-83
2023/11/16 06:53:06;;;;;;;1.60;1.20;;;8.30;98.20;;;;;;4999500;28;20930;-83
2023/11/16 06:55:32;;;;;;;1.60;1.20;;;8.30;98.20;;;;;;4992303;28;20837;-84
2023/11/16 06:58:01;;;;;;;1.60;1.20;;;8.30;98.20;;;;;;4987359;28;20473;-83
2023/11/16 07:00:28;;;;;;;1.63;1.30;;;8.30;98.20;;;;;;4979267;28;20849;-83
2023/11/16 07:02:56;;;;;;;1.63;1.40;;;8.30;98.20;;;;;;4981584;28;20508;-84
2023/11/16 07:05:23;;;;;;;1.60;1.30;;;8.30;98.20;;;;;;4974398;28;20480;-83
2023/11/16 07:07:50;;;;;;;1.60;1.20;;;8.40;98.20;;;;;;4976327;28;20886;-82
2023/11/16 07:10:17;;;;;;;1.60;1.20;;;8.40;98.20;;;;;;4970216;28;20476;-83
2023/11/16 07:12:45;;;;;;;1.60;1.10;;;8.40;98.20;;;;;;4978105;28;20763;-81
2023/11/16 07:15:14;;;;;;;1.60;1.30;;;8.40;98.20;;;;;;4975458;28;20899;-82
2023/11/16 07:17:41;;;;;;;1.60;1.20;;;8.40;98.20;;;;;;4976307;28;20523;-82
2023/11/16 07:20:11;;;;;;;1.60;1.20;;;8.50;98.20;;;;;;4971496;28;20469;-82
2023/11/16 07:22:38;;;;;;;1.60;1.20;;;8.50;98.20;;;;;;4975622;28;20500;-80
2023/11/16 07:25:07;;;;;;;1.60;1.20;;;8.50;98.20;;;;;;4979910;28;20500;-82
2023/11/16 07:27:34;;;;;;;1.67;1.30;;;8.50;98.20;;;;;;4975523;28;20703;-81
2023/11/16 07:30:01;;;;;;;1.60;1.20;;;8.50;98.20;;;;;;4971182;28;20479;-81
2023/11/16 07:32:30;;;;;;;1.60;1.40;;;8.60;98.20;;;;;;4974113;28;20492;-82
2023/11/16 07:34:58;;;;;;;1.60;1.20;;;8.60;98.20;;;;;;4976537;28;20465;-83
2023/11/16 07:37:31;;;;;;;1.60;1.20;;;8.60;98.20;;;;;;4986447;28;20468;-81
2023/11/16 07:39:57;;;;;;;1.60;1.20;;;8.60;98.20;;;;;;4979012;28;20481;-83
2023/11/16 07:42:24;;;;;;;1.60;1.30;;;8.60;98.20;;;;;;4972084;28;20493;-84
2023/11/16 07:44:51;;;;;;;1.67;1.40;;;8.60;98.20;;;;;;4973679;28;20476;-82
2023/11/16 07:47:18;;;;;;;1.60;1.17;;;8.60;98.20;;;;;;4969805;28;20490;-83
2023/11/16 07:49:46;;;;;;;1.60;1.20;;;8.60;98.20;;;;;;4976978;28;20474;-83
2023/11/16 07:52:13;;;;;;;1.60;1.20;;;8.60;98.20;;;;;;4973028;28;20563;-82
2023/11/16 07:54:45;;;;;;;1.60;1.10;;;8.70;98.20;;;;;;4972871;28;20918;-83
2023/11/16 07:57:13;;;;;;;1.60;1.20;;;8.70;98.20;;;;;;4966945;28;20481;-81
2023/11/16 07:59:42;;;;;;;1.70;1.37;;;8.70;98.20;;;;;;4974080;28;20468;-83
2023/11/16 08:02:13;;;;;;;1.60;1.30;;;8.70;98.20;;;;;;4969035;28;20487;-79
2023/11/16 08:04:39;;;;;;;1.60;1.20;;;8.80;98.20;;;;;;4976349;28;20459;-80
2023/11/16 08:07:07;;;;;;;1.60;1.17;;;8.80;98.20;;;;;;4967752;28;20538;-80
2023/11/16 08:09:36;;;;;;;1.60;1.23;;;8.80;98.20;;;;;;4977739;28;21226;-83
2023/11/16 08:12:04;;;;;;;1.60;1.20;;;8.80;98.20;;;;;;4967295;28;20492;-83
2023/11/16 08:14:34;;;;;;;1.60;1.20;;;8.90;98.20;;;;;;4975868;28;20470;-80
2023/11/16 08:17:01;;;;;;;1.60;1.20;;;8.90;98.20;;;;;;4969523;28;20559;-81
2023/11/16 08:19:31;;;;;;;1.60;1.30;;;9.00;98.20;;;;;;4973170;28;20470;-81
2023/11/16 08:22:01;;;;;;;1.60;1.20;;;9.10;98.20;;;;;;4964850;28;20488;-81
2023/11/16 08:24:30;;;;;;;1.60;1.20;;;9.10;98.20;;;;;;4973793;28;20486;-81
2023/11/16 08:26:58;;;;;;;1.60;1.17;;;9.20;98.20;;;;;;4970761;28;20508;-82
2023/11/16 08:29:25;;;;;;;1.60;1.20;;;9.20;98.20;;;;;;4977843;28;20473;-81
2023/11/16 08:31:54;;;;;;;1.67;1.30;;;9.30;98.20;;;;;;4969432;28;20485;-82
2023/11/16 08:34:23;;;;;;;1.60;1.17;;;9.30;98.20;;;;;;4981174;28;20476;-82
2023/11/16 08:36:50;;;;;;;1.60;1.20;;;9.40;98.20;;;;;;4975446;28;20493;-82
2023/11/16 08:39:17;;;;;;;1.60;1.10;;;9.50;98.20;;;;;;4978962;28;21111;-81
2023/11/16 08:41:46;;;;;;;1.60;1.10;;;9.50;98.20;;;;;;4966123;28;20473;-83
2023/11/16 08:44:16;;;;;;;1.60;1.10;;;9.60;98.20;;;;;;4977689;28;20478;-82
2023/11/16 08:46:45;;;;;;;1.60;1.10;;;9.70;98.20;;;;;;4970059;28;20480;-82
2023/11/16 08:49:12;;;;;;;1.63;1.20;;;9.80;98.20;;;;;;4981245;28;20461;-82
2023/11/16 08:51:39;;;;;;;1.60;1.17;;;9.80;98.20;;;;;;4965808;28;20482;-82
2023/11/16 08:54:07;;;;;;;1.60;1.20;;;9.80;98.20;;;;;;4981690;28;20528;-81
2023/11/16 08:56:35;;;;;;;1.60;1.17;;;9.90;98.20;;;;;;4970211;28;21109;-81
2023/11/16 08:59:07;;;;;;;1.60;1.10;;;9.90;98.20;;;;;;4979750;28;20472;-81
2023/11/16 09:01:35;;;;;;;1.60;1.10;;;10.00;98.20;;;;;;4965166;28;20481;-82
2023/11/16 09:04:02;;;;;;;1.60;1.10;;;10.00;98.20;;;;;;4981904;28;20477;-81
2023/11/16 09:06:30;;;;;;;1.60;1.10;;;10.10;98.20;;;;;;4968890;28;20476;-82
2023/11/16 09:08:59;;;;;;;1.60;1.10;;;10.20;98.20;;;;;;4981018;28;20492;-81
2023/11/16 09:11:27;;;;;;;1.60;1.20;;;10.20;98.20;;;;;;4966724;28;20859;-80
2023/11/16 09:13:54;;;;;;;1.60;1.10;;;10.20;98.20;;;;;;4978064;28;20561;-81
2023/11/16 09:16:22;;;;;;;1.60;1.10;;;10.30;98.20;;;;;;4965241;28;20488;-80
2023/11/16 09:18:49;;;;;;;1.60;1.10;;;10.30;98.20;;;;;;4975397;28;21023;-80
2023/11/16 09:21:16;;;;;;;1.60;1.10;;;10.20;98.20;;;;;;4965046;28;20834;-80
2023/11/16 09:23:43;;;;;;;1.60;1.10;;;10.20;98.20;;;;;;4981048;28;20980;-81
2023/11/16 09:26:10;;;;;;;1.60;1.10;;;10.20;98.20;;;;;;4968903;28;20476;-82
2023/11/16 09:28:38;;;;;;;1.73;1.30;;;10.20;98.20;;;;;;5000522;28;20492;-81
2023/11/16 09:31:10;;;;;;;1.60;1.20;;;10.30;98.20;;;;;;4983459;28;20460;-81
2023/11/16 09:33:39;;;;;;;1.60;1.10;;;10.30;98.20;;;;;;4980391;28;20498;-81
2023/11/16 09:36:07;;;;;;;1.60;1.10;;;10.30;98.20;;;;;;4964063;28;20468;-81
2023/11/16 09:38:34;;;;;;;1.60;1.10;;;10.40;98.20;;;;;;4978352;28;20466;-81
2023/11/16 09:41:07;;;;;;;1.60;1.10;;;10.50;98.20;;;;;;4964362;28;20472;-82
2023/11/16 09:43:37;;;;;;;1.60;1.20;;;10.50;98.20;;;;;;4982922;28;20477;-82
2023/11/16 09:46:08;;;;;;;1.60;1.10;;;10.50;98.20;;;;;;4964483;28;20461;-81
2023/11/16 09:48:39;;;;;;;1.60;1.10;;;10.60;98.20;;;;;;4979513;28;20552;-82
2023/11/16 09:51:08;;;;;;;1.60;1.20;;;10.60;98.20;;;;;;4962953;28;20469;-81
2023/11/16 09:53:39;;;;;;;1.60;1.10;;;10.60;98.20;;;;;;4976994;28;20486;-81
2023/11/16 09:56:07;;;;;;;1.60;1.10;;;10.70;98.20;;;;;;4961402;28;20563;-81
2023/11/16 09:58:39;;;;;;;1.60;1.10;;;10.70;98.20;;;;;;4977101;28;20469;-81
2023/11/16 10:01:10;;;;;;;1.60;1.10;;;10.70;98.20;;;;;;4960915;28;20462;-81
2023/11/16 10:03:40;;;;;;;1.60;1.20;;;10.70;98.20;;;;;;4975096;28;20483;-81
2023/11/16 10:06:09;;;;;;;1.60;1.00;;;10.70;98.20;;;;;;4960266;28;20469;-83
2023/11/16 10:08:40;;;;;;;1.60;1.10;;;10.70;98.20;;;;;;4976038;28;20489;-81
2023/11/16 10:11:09;;;;;;;1.60;1.10;;;10.70;98.20;;;;;;4960189;28;20711;-81
2023/11/16 10:13:37;;;;;;;1.60;1.10;;;10.70;98.20;;;;;;4972416;28;20545;-81
2023/11/16 10:16:08;;;;;;;1.60;1.20;;;10.60;98.20;;;;;;4962019;28;20512;-82
2023/11/16 10:18:35;;;;;;;1.60;1.20;;;10.60;98.20;;;;;;4974744;28;20458;-80
2023/11/16 10:21:04;;;;;;;1.60;1.10;;;10.60;98.20;;;;;;4959864;28;20522;-81
2023/11/16 10:23:31;;;;;;;1.60;1.13;;;10.60;98.20;;;;;;4975764;28;21012;-81
2023/11/16 10:25:59;;;;;;;1.60;1.10;;;10.60;98.20;;;;;;4960906;28;20557;-82
2023/11/16 10:28:27;;;;;;;1.60;1.10;;;10.50;98.20;;;;;;4981904;28;20513;-81
2023/11/16 10:30:58;;;;;;;1.60;1.10;;;10.50;98.20;;;;;;4961843;28;20973;-81
2023/11/16 10:33:28;;;;;;;1.60;1.20;;;10.50;98.20;;;;;;4981151;28;20497;-81
2023/11/16 10:35:57;;;;;;;1.53;1.10;;;10.40;98.20;;;;;;4966230;28;20524;-82
2023/11/16 10:38:27;;;;;;;1.60;1.10;;;10.40;98.20;;;;;;4981112;28;20467;-79
2023/11/16 10:40:54;;;;;;;1.60;1.10;;;10.40;98.20;;;;;;4959791;28;20543;-81
2023/11/16 10:43:25;;;;;;;1.60;1.10;;;10.40;98.20;;;;;;4979279;28;20937;-80
2023/11/16 10:45:52;;;;;;;1.60;1.20;;;10.40;98.20;;;;;;4959989;28;20844;-80
2023/11/16 10:48:19;;;;;;;1.60;1.10;;;10.30;98.20;;;;;;4979138;28;20491;-81
2023/11/16 10:50:47;;;;;;;1.60;1.20;;;10.30;98.20;;;;;;4965531;28;20477;-79
2023/11/16 10:53:17;;;;;;;1.60;1.07;;;10.20;98.20;;;;;;4977175;28;20505;-81
2023/11/16 10:55:47;;;;;;;1.60;1.23;;;10.20;98.20;;;;;;4969559;28;20492;-80
2023/11/16 10:58:15;;;;;;;1.60;1.10;;;10.20;98.20;;;;;;4977195;28;20484;-80
2023/11/16 11:00:43;;;;;;;1.60;1.10;;;10.20;98.20;;;;;;4987015;28;20540;-80
2023/11/16 11:03:11;;;;;;;1.60;1.10;;;10.10;98.20;;;;;;4986072;28;20519;-81
2023/11/16 11:05:41;;;;;;;1.60;1.10;;;10.10;98.20;;;;;;4986964;28;20461;-79
2023/11/16 11:08:10;;;;;;;1.60;1.10;;;10.10;98.20;;;;;;4987789;28;20481;-79
2023/11/16 11:10:38;;;;;;;1.60;1.20;;;10.10;98.20;;;;;;4988171;28;20465;-80
2023/11/16 11:13:07;;;;;;;1.60;1.30;;;10.00;98.20;;;;;;4987132;28;20528;-80
2023/11/16 11:15:35;;;;;;;1.60;1.10;;;10.00;98.20;;;;;;4985529;28;20469;-79
2023/11/16 11:18:04;;;;;;;1.60;1.10;;;10.00;98.20;;;;;;4985865;28;20480;-80
2023/11/16 11:20:36;;;;;;;1.60;1.10;;;9.90;98.20;;;;;;4986990;28;20465;-79
2023/11/16 11:23:07;;;;;;;1.60;1.10;;;9.90;98.20;;;;;;4987970;28;20542;-80
2023/11/16 11:25:34;;;;;;;1.60;1.10;;;9.90;98.20;;;;;;4988711;28;20489;-80
2023/11/16 11:28:03;;;;;;;1.60;1.10;;;9.90;98.20;;;;;;4987504;28;20487;-79
2023/11/16 11:30:32;;;;;;;1.60;1.10;;;9.90;98.20;;;;;;4987210;28;20552;-80
2023/11/16 11:33:05;;;;;;;1.60;1.10;;;9.90;98.20;;;;;;4987587;28;20503;-78
2023/11/16 11:35:35;;;;;;;1.60;1.10;;;9.90;98.20;;;;;;4985496;28;20468;-79
2023/11/16 11:38:03;;;;;;;1.60;1.10;;;9.80;98.20;;;;;;4989763;28;20500;-79
2023/11/16 11:40:30;;;;;;;1.60;1.20;;;9.80;98.20;;;;;;4986041;28;20507;-80
2023/11/16 11:42:58;;;;;;;1.60;1.20;;;9.80;98.20;;;;;;4986240;28;20489;-79
2023/11/16 11:45:29;;;;;;;1.60;1.10;;;9.90;98.20;;;;;;4985953;28;20474;-80
2023/11/16 11:47:57;;;;;;;1.60;1.10;;;9.90;98.20;;;;;;4987292;28;20559;-79
2023/11/16 11:50:27;;;;;;;1.60;1.13;;;9.90;98.20;;;;;;4984131;28;20991;-79
2023/11/16 11:52:55;;;;;;;1.60;1.10;;;9.90;98.20;;;;;;4988064;28;20944;-80
2023/11/16 11:55:26;;;;;;;1.60;1.10;;;9.90;98.20;;;;;;4986172;28;20472;-80
2023/11/16 11:57:53;;;;;;;1.60;1.20;;;9.80;98.20;;;;;;4994256;28;20499;-79
2023/11/16 12:00:22;;;;;;;1.60;1.20;;;9.80;98.20;;;;;;4980729;28;20798;-79
2023/11/16 12:02:50;;;;;;;1.60;1.27;;;9.80;98.20;;;;;;4982384;28;20479;-79
2023/11/16 12:05:19;;;;;;;1.60;1.20;;;9.80;98.20;;;;;;4981211;28;20866;-79
2023/11/16 12:07:58;;;;;;;1.60;1.10;;;9.80;98.20;;;;;;4986996;28;20487;-78
2023/11/16 12:10:25;;;;;;;1.60;1.10;;;9.80;98.20;;;;;;4982792;28;20998;-79
2023/11/16 12:12:52;;;;;;;1.60;1.20;;;9.80;98.20;;;;;;4987851;28;20498;-79
2023/11/16 12:15:19;;;;;;;1.60;1.00;;;9.80;98.20;;;;;;4979970;28;20470;-78
2023/11/16 12:17:46;;;;;;;1.60;1.10;;;9.80;98.20;;;;;;4986265;28;20616;-79
2023/11/16 12:20:13;;;;;;;1.60;1.20;;;9.80;98.20;;;;;;4983069;28;20488;-79
2023/11/16 12:22:42;;;;;;;1.60;1.10;;;9.80;98.20;;;;;;4985303;28;20492;-78
2023/11/16 12:25:12;;;;;;;1.60;1.10;;;9.70;98.20;;;;;;4984387;28;20463;-79
2023/11/16 12:27:41;;;;;;;1.70;1.30;;;9.70;98.20;;;;;;4984885;28;20483;-78
2023/11/16 12:30:17;;;;;;;1.60;1.10;;;9.60;98.20;;;;;;4978486;28;20540;-79
2023/11/16 12:32:45;;;;;;;1.60;1.10;;;9.60;98.20;;;;;;4982550;28;20570;-78
2023/11/16 12:35:14;;;;;;;1.80;1.70;;;9.60;98.20;;;;;;4977456;28;20468;-80
2023/11/16 12:37:42;;;;;;;1.60;1.20;;;9.70;98.20;;;;;;4986811;28;20945;-77
2023/11/16 12:40:17;;;;;;;1.60;1.10;;;9.70;98.20;;;;;;4981376;28;20483;-79
2023/11/16 12:42:44;;;;;;;1.60;1.20;;;9.70;98.20;;;;;;4988759;28;20518;-78
2023/11/16 12:45:11;;;;;;;1.60;1.20;;;9.70;98.20;;;;;;4983081;28;20468;-79
2023/11/16 12:47:38;;;;;;;1.60;1.20;;;9.60;98.20;;;;;;4983169;28;20480;-79
2023/11/16 12:50:06;;;;;;;1.60;1.10;;;9.70;98.20;;;;;;4982819;28;20902;-78
2023/11/16 12:52:34;;;;;;;1.60;1.10;;;9.70;98.20;;;;;;4984247;28;21008;-79
2023/11/16 12:55:04;;;;;;;1.60;1.10;;;9.60;98.20;;;;;;4983497;28;20492;-78
2023/11/16 12:57:30;;;;;;;3.33;3.03;;;9.60;98.20;;;;;;4978996;28;20489;-78
2023/11/16 12:59:58;;;;;;;1.60;1.20;;;9.60;98.20;;;;;;4984657;28;20469;-78